Airfield :
LOGIN :

Register | Disclaimer

   EN    FR    IT 

 










Legend :    VFR   Marginal VFR   IFR   Intensive IFR   Very Intensive IFR
Visi :
Ceiling :
>= 8 km
>= 3000ft
5 to 8 km
1000 to 3000 ft
1500m to 5 km
500 to 1000 ft
800 to 1500m
200 to 500 ft
< 800m
< 200 ft
Symbols :   Thunderstorms  Fog  Heavy snow  Heavy precipitations  Wind > 20 kt
SIGMETs :     Misc.  Thunderstorms  Icing  Turbulence  Mountain Waves  Volcanic Ashes






- Airport Elevation : 86 ft


LERT - Rota Navy

CURRENT METAR :
  • 282230Z 34003KT CAVOK 19/17 Q1017 NOSIG

EXPIRED METARs :
  • 282200Z 35003KT 330V030 CAVOK 19/18 Q1017 NOSIG
  • 282130Z VRB03KT CAVOK 19/18 Q1017 NOSIG
  • 282100Z 28004KT CAVOK 19/18 Q1016 NOSIG
  • 282030Z VRB01KT CAVOK 20/18 Q1016 NOSIG
  • 282000Z 29005KT CAVOK 20/18 Q1016 NOSIG
  • 281930Z 28005KT CAVOK 21/18 Q1016 NOSIG
  • 281900Z 27005KT 240V320 CAVOK 22/18 Q1016 NOSIG
  • 281830Z 27007KT 230V300 CAVOK 22/18 Q1016 NOSIG

TAF TAF LERT
Valid from the 28 at 21:00 until the 29 at 21:00 UTC


282000Z 2821/2921 VRB04KT CAVOK TX28/2915Z TN16/2906Z
TEMPO 2912/2916 24010KT



MET'MAP, your aeronautical weather chart ! - Copyright ORBIFLY December 2007 - Disclaimer

ORBIFLY MET'MAP TEAM :

Programming & Development : Alexandra Zaïnal
Original concept : Baudouin d'Aumeries
Technical & hardware support : Manuel Goepfert
Assistance : Marc-Olivier Méhu




SOURCES & CREDITS :

   NOAA